createdAt,value
2019-01-12T00:02:09.306Z,12.53
2019-01-12T00:04:39.176Z,12.90
2019-01-12T00:07:11.159Z,12.90
2019-01-12T00:09:40.710Z,13.00
2019-01-12T00:12:10.602Z,11.27
2019-01-12T00:14:40.159Z,12.27
2019-01-12T00:17:09.739Z,11.40
2019-01-12T00:19:39.293Z,10.93
2019-01-12T00:22:08.831Z,11.90
2019-01-12T00:24:38.370Z,10.53
2019-01-12T00:27:07.997Z,9.80
2019-01-12T00:29:38.152Z,11.30
2019-01-12T00:32:07.694Z,11.80
2019-01-12T00:34:37.242Z,11.23
2019-01-12T00:37:06.950Z,11.70
2019-01-12T00:39:36.787Z,9.73
2019-01-12T00:42:06.317Z,10.77
2019-01-12T00:44:35.871Z,10.30
2019-01-12T00:47:05.673Z,11.10
2019-01-12T00:49:35.230Z,10.33
2019-01-12T00:52:04.934Z,9.97
2019-01-12T00:54:38.505Z,10.33
2019-01-12T00:57:05.761Z,9.53
2019-01-12T00:59:35.313Z,9.40
2019-01-12T01:02:04.875Z,8.57
2019-01-12T01:04:34.481Z,10.30
2019-01-12T01:07:04.045Z,11.20
2019-01-12T01:09:33.886Z,10.50
2019-01-12T01:12:03.438Z,11.30
2019-01-12T01:14:33.047Z,10.77
2019-01-12T01:17:02.600Z,10.07
2019-01-12T01:19:32.152Z,10.33
2019-01-12T01:22:01.722Z,11.73
2019-01-12T01:24:32.367Z,11.40
2019-01-12T01:27:01.946Z,12.77
2019-01-12T01:29:32.081Z,10.27
2019-01-12T01:32:01.642Z,12.30
2019-01-12T01:34:31.212Z,13.87
2019-01-12T01:37:00.762Z,11.43
2019-01-12T01:39:30.314Z,10.40
2019-01-12T01:42:00.154Z,9.23
2019-01-12T01:44:29.694Z,10.50
2019-01-12T01:46:59.282Z,11.97
2019-01-12T01:49:28.931Z,12.77
2019-01-12T01:51:59.511Z,12.20
2019-01-12T01:54:29.315Z,11.83
2019-01-12T01:56:58.959Z,12.53
2019-01-12T01:59:28.759Z,11.93
2019-01-12T02:01:58.302Z,11.77
2019-01-12T02:04:31.105Z,11.43
2019-01-12T02:07:00.717Z,11.87
2019-01-12T02:09:30.362Z,10.43
2019-01-12T02:12:05.616Z,10.17
2019-01-12T02:14:35.392Z,11.00
2019-01-12T02:17:04.993Z,10.40
2019-01-12T02:19:34.927Z,10.33
2019-01-12T02:22:04.560Z,12.13
2019-01-12T02:24:34.180Z,13.97
2019-01-12T02:27:03.741Z,10.73
2019-01-12T02:29:33.345Z,9.73
2019-01-12T02:32:02.907Z,10.70
2019-01-12T02:34:32.706Z,10.37
2019-01-12T02:37:02.257Z,11.87
2019-01-12T02:39:31.907Z,11.97
2019-01-12T02:42:01.470Z,12.33
2019-01-12T02:44:31.021Z,13.03
2019-01-12T02:47:00.563Z,13.07
2019-01-12T02:49:30.180Z,12.27
2019-01-12T02:51:59.739Z,11.17
2019-01-12T02:54:29.269Z,11.60
2019-01-12T02:56:59.055Z,10.77
2019-01-12T02:59:28.621Z,11.17
2019-01-12T03:01:58.255Z,10.97
2019-01-12T03:04:27.819Z,11.07
2019-01-12T03:06:57.374Z,10.17
2019-01-12T03:09:27.186Z,9.87
2019-01-12T03:11:56.763Z,12.77
2019-01-12T03:14:26.589Z,10.83
2019-01-12T03:16:56.138Z,10.10
2019-01-12T03:19:25.691Z,8.47
2019-01-12T03:21:55.268Z,11.53
2019-01-12T03:24:24.824Z,12.07
2019-01-12T03:26:54.350Z,11.00
2019-01-12T03:29:28.159Z,10.50
2019-01-12T03:31:58.254Z,11.17
2019-01-12T03:34:28.788Z,10.27
2019-01-12T03:37:00.242Z,10.97
2019-01-12T03:39:29.841Z,10.23
2019-01-12T03:41:59.458Z,9.60
2019-01-12T03:44:29.004Z,8.07
2019-01-12T03:46:58.579Z,10.60
2019-01-12T03:49:28.154Z,10.33
2019-01-12T03:51:57.852Z,10.10
2019-01-12T03:54:27.679Z,9.23
2019-01-12T03:56:57.270Z,10.13
2019-01-12T03:59:26.862Z,9.03
2019-01-12T04:01:56.484Z,10.40
2019-01-12T04:04:26.043Z,10.50
2019-01-12T04:06:55.895Z,9.80
2019-01-12T04:09:25.446Z,8.90
2019-01-12T04:11:55.255Z,8.77
2019-01-12T04:14:24.792Z,6.87
2019-01-12T04:16:54.586Z,9.00
2019-01-12T04:19:24.134Z,8.73
2019-01-12T04:21:53.650Z,8.63
2019-01-12T04:24:23.238Z,9.43
2019-01-12T04:26:52.832Z,8.33
2019-01-12T04:29:22.362Z,8.27
2019-01-12T04:31:52.023Z,7.80
2019-01-12T04:34:21.574Z,8.50
2019-01-12T04:36:51.111Z,8.30
2019-01-12T04:39:20.660Z,8.57
2019-01-12T04:41:50.266Z,7.03
2019-01-12T04:44:19.805Z,9.00
2019-01-12T04:46:49.338Z,8.40
2019-01-12T04:49:19.129Z,8.27
2019-01-12T04:51:48.800Z,9.17
2019-01-12T04:54:18.387Z,8.67
2019-01-12T04:56:48.270Z,7.70
2019-01-12T04:59:18.407Z,8.00
2019-01-12T05:01:47.947Z,7.20
2019-01-12T05:04:17.499Z,9.20
2019-01-12T05:06:47.051Z,8.13
2019-01-12T05:09:16.595Z,8.40
2019-01-12T05:11:46.163Z,8.60
2019-01-12T05:14:15.716Z,7.93
2019-01-12T05:16:45.306Z,7.20
2019-01-12T05:19:14.924Z,8.03
2019-01-12T05:21:45.436Z,8.00
2019-01-12T05:24:14.982Z,7.13
2019-01-12T05:26:44.514Z,7.00
2019-01-12T05:29:14.135Z,7.13
2019-01-12T05:31:43.685Z,6.70
2019-01-12T05:34:13.503Z,5.37
2019-01-12T05:36:43.055Z,7.43
2019-01-12T05:39:12.611Z,7.50
2019-01-12T05:41:42.217Z,7.40
2019-01-12T05:44:11.723Z,6.70
2019-01-12T05:46:41.586Z,7.40
2019-01-12T05:49:11.112Z,7.97
2019-01-12T05:51:40.655Z,7.57
2019-01-12T05:54:10.216Z,6.70
2019-01-12T05:56:40.079Z,6.73
2019-01-12T05:59:09.608Z,6.57
2019-01-12T06:01:39.138Z,5.10
2019-01-12T06:04:08.683Z,6.63
2019-01-12T06:06:38.556Z,6.53
2019-01-12T06:09:08.351Z,6.93
2019-01-12T06:11:37.904Z,7.60
2019-01-12T06:14:07.422Z,7.60
2019-01-12T06:16:37.003Z,8.00
2019-01-12T06:19:06.578Z,7.73
2019-01-12T06:21:36.122Z,7.00
2019-01-12T06:24:05.654Z,8.60
2019-01-12T06:26:35.211Z,8.60
2019-01-12T06:29:04.731Z,7.83
2019-01-12T06:31:34.301Z,7.40
2019-01-12T06:34:03.871Z,6.60
2019-01-12T06:36:33.407Z,7.20
2019-01-12T06:39:05.133Z,7.83
2019-01-12T06:41:35.099Z,8.63
2019-01-12T06:44:04.927Z,7.47
2019-01-12T06:46:36.114Z,7.60
2019-01-12T06:49:06.721Z,7.30
2019-01-12T06:51:37.451Z,7.90
2019-01-12T06:54:07.535Z,6.10
2019-01-12T06:56:37.404Z,8.93
2019-01-12T06:59:06.974Z,8.13
2019-01-12T07:01:36.532Z,7.17
2019-01-12T07:04:06.087Z,7.37
2019-01-12T07:06:36.415Z,7.97
2019-01-12T07:09:08.063Z,7.23
2019-01-12T07:11:37.617Z,7.20
2019-01-12T07:14:07.666Z,7.70
2019-01-12T07:16:37.842Z,8.40
2019-01-12T07:19:07.967Z,7.90
2019-01-12T07:21:37.912Z,8.13
2019-01-12T07:24:07.563Z,9.70
2019-01-12T07:26:38.462Z,8.00
2019-01-12T07:29:08.908Z,8.70
2019-01-12T07:31:40.307Z,8.47
2019-01-12T07:34:09.858Z,9.70
2019-01-12T07:36:40.798Z,9.50
2019-01-12T07:39:10.337Z,6.20
2019-01-12T07:41:39.876Z,8.97
2019-01-12T07:44:09.552Z,8.17
2019-01-12T07:46:39.103Z,12.90
2019-01-12T07:49:09.555Z,14.27
2019-01-12T07:51:39.536Z,11.23
2019-01-12T07:54:09.106Z,11.53
2019-01-12T07:56:38.813Z,11.10
2019-01-12T07:59:08.904Z,9.47
2019-01-12T08:01:38.783Z,7.83
2019-01-12T08:04:08.649Z,9.33
2019-01-12T08:06:38.207Z,8.33
2019-01-12T08:09:08.843Z,7.67
2019-01-12T08:11:39.518Z,7.73
2019-01-12T08:14:09.390Z,7.97
2019-01-12T08:16:39.425Z,8.67
2019-01-12T08:19:09.249Z,8.07
2019-01-12T08:21:38.770Z,6.77
2019-01-12T08:24:08.355Z,8.73
2019-01-12T08:26:37.915Z,6.13
2019-01-12T08:29:07.521Z,9.17
2019-01-12T08:31:37.355Z,8.23
2019-01-12T08:34:07.314Z,9.33
2019-01-12T08:36:37.510Z,8.23
2019-01-12T08:39:09.047Z,7.90
2019-01-12T08:41:39.226Z,7.63
2019-01-12T08:44:08.900Z,8.33
2019-01-12T08:46:38.696Z,7.23
2019-01-12T08:49:09.345Z,7.07
2019-01-12T08:51:41.188Z,8.30
2019-01-12T08:54:11.066Z,6.63
2019-01-12T08:56:41.140Z,8.43
2019-01-12T08:59:10.746Z,8.03
2019-01-12T09:01:40.635Z,8.07
2019-01-12T09:04:10.414Z,7.20
2019-01-12T09:06:40.901Z,9.00
2019-01-12T09:09:10.907Z,6.90
2019-01-12T09:11:40.739Z,10.77
2019-01-12T09:14:10.750Z,8.27
2019-01-12T09:16:40.318Z,8.13
2019-01-12T09:19:09.888Z,13.23
2019-01-12T09:21:39.720Z,8.57
2019-01-12T09:24:09.735Z,7.40
2019-01-12T09:26:44.863Z,13.53
2019-01-12T09:29:10.547Z,8.47
2019-01-12T09:31:40.193Z,10.70
2019-01-12T09:34:09.735Z,10.83
2019-01-12T09:36:39.757Z,10.47
2019-01-12T09:39:10.430Z,11.37
2019-01-12T09:41:40.188Z,10.27
2019-01-12T09:44:10.975Z,10.03
2019-01-12T09:46:40.831Z,9.43
2019-01-12T09:49:10.492Z,13.57
2019-01-12T09:51:40.252Z,11.30
2019-01-12T09:54:09.839Z,10.60
2019-01-12T09:56:39.403Z,11.33
2019-01-12T09:59:09.326Z,11.90
2019-01-12T10:01:39.007Z,10.90
2019-01-12T10:04:08.579Z,10.50
2019-01-12T10:06:38.098Z,8.50
2019-01-12T10:09:08.357Z,9.73
2019-01-12T10:11:38.065Z,11.13
2019-01-12T10:14:07.734Z,9.70
2019-01-12T10:16:37.267Z,10.30
2019-01-12T10:19:06.815Z,7.90
2019-01-12T10:21:36.369Z,12.10
2019-01-12T10:24:05.973Z,7.40
2019-01-12T10:26:35.855Z,10.00
2019-01-12T10:29:05.422Z,8.10
2019-01-12T10:31:35.021Z,9.17
2019-01-12T10:34:05.058Z,6.77
2019-01-12T10:36:34.994Z,8.17
2019-01-12T10:39:07.391Z,7.47
2019-01-12T10:41:36.989Z,8.03
2019-01-12T10:44:06.632Z,8.63
2019-01-12T10:46:36.146Z,6.87
2019-01-12T10:49:05.823Z,9.07
2019-01-12T10:51:35.524Z,6.40
2019-01-12T10:54:05.250Z,10.00
2019-01-12T10:56:34.795Z,7.60
2019-01-12T10:59:04.398Z,9.27
2019-01-12T11:01:35.130Z,8.47
2019-01-12T11:04:04.994Z,7.10
2019-01-12T11:06:34.546Z,8.97
2019-01-12T11:09:06.164Z,7.13
2019-01-12T11:11:36.071Z,7.67
2019-01-12T11:14:05.663Z,8.53
2019-01-12T11:16:35.207Z,7.67
2019-01-12T11:19:04.827Z,7.33
2019-01-12T11:21:34.751Z,8.13
2019-01-12T11:24:04.296Z,7.63
2019-01-12T11:26:33.855Z,8.03
2019-01-12T11:29:03.959Z,7.70
2019-01-12T11:31:33.562Z,7.13
2019-01-12T11:34:03.107Z,6.80
2019-01-12T11:36:32.652Z,8.00
2019-01-12T11:39:02.210Z,7.80
2019-01-12T11:41:32.963Z,8.03
2019-01-12T11:44:02.823Z,7.83
2019-01-12T11:46:32.450Z,8.27
2019-01-12T11:49:02.103Z,8.27
2019-01-12T11:51:31.673Z,8.77
2019-01-12T11:54:01.199Z,8.13
2019-01-12T11:56:30.729Z,7.80
2019-01-12T11:59:00.282Z,8.30
2019-01-12T12:01:29.835Z,7.87
2019-01-12T12:03:59.654Z,9.27
2019-01-12T12:06:29.222Z,8.43
2019-01-12T12:08:58.795Z,8.13
2019-01-12T12:11:28.338Z,7.23
2019-01-12T12:13:57.890Z,8.10
2019-01-12T12:16:27.718Z,5.30
2019-01-12T12:18:57.301Z,7.60
2019-01-12T12:21:27.683Z,8.43
2019-01-12T12:23:57.714Z,8.37
2019-01-12T12:26:27.591Z,6.17
2019-01-12T12:28:57.226Z,8.43
2019-01-12T12:31:26.858Z,10.73
2019-01-12T12:33:56.474Z,11.20
2019-01-12T12:36:26.079Z,9.83
2019-01-12T12:38:55.666Z,8.90
2019-01-12T12:41:25.260Z,9.83
2019-01-12T12:43:55.195Z,8.17
2019-01-12T12:46:25.199Z,8.17
2019-01-12T12:48:55.179Z,7.90
2019-01-12T12:51:24.731Z,6.63
2019-01-12T12:53:54.384Z,8.87
2019-01-12T12:56:24.036Z,6.77
2019-01-12T12:58:53.706Z,7.20
2019-01-12T13:01:23.304Z,6.00
2019-01-12T13:03:53.410Z,7.60
2019-01-12T13:06:23.060Z,5.30
2019-01-12T13:08:53.682Z,7.03
2019-01-12T13:11:23.250Z,5.27
2019-01-12T13:13:52.883Z,6.70
2019-01-12T13:16:22.443Z,5.37
2019-01-12T13:18:52.040Z,6.47
2019-01-12T13:21:22.003Z,6.33
2019-01-12T13:23:51.903Z,5.40
2019-01-12T13:26:21.487Z,7.47
2019-01-12T13:28:51.088Z,5.97
2019-01-12T13:31:20.671Z,7.50
2019-01-12T13:33:50.298Z,6.23
2019-01-12T13:36:19.879Z,6.37
2019-01-12T13:38:49.446Z,4.47
2019-01-12T13:41:19.065Z,5.90
2019-01-12T13:43:48.641Z,4.83
2019-01-12T13:46:18.206Z,5.77
2019-01-12T13:48:47.795Z,4.60
2019-01-12T13:51:17.334Z,6.63
2019-01-12T13:53:46.940Z,4.93
2019-01-12T13:56:17.658Z,6.23
2019-01-12T13:58:47.843Z,5.23
2019-01-12T14:01:17.394Z,6.47
2019-01-12T14:03:47.043Z,5.90
2019-01-12T14:06:16.639Z,6.63
2019-01-12T14:08:46.286Z,5.97
2019-01-12T14:11:15.932Z,8.07
2019-01-12T14:13:46.014Z,8.37
2019-01-12T14:16:15.567Z,6.63
2019-01-12T14:18:45.222Z,8.87
2019-01-12T14:21:14.927Z,9.03
2019-01-12T14:23:44.566Z,8.87
2019-01-12T14:26:14.548Z,8.83
2019-01-12T14:28:44.183Z,8.20
2019-01-12T14:31:13.837Z,10.20
2019-01-12T14:33:43.418Z,7.40
2019-01-12T14:36:13.412Z,9.67
2019-01-12T14:38:43.423Z,9.93
2019-01-12T14:41:13.031Z,7.07
2019-01-12T14:43:42.579Z,9.80
2019-01-12T14:46:12.678Z,10.37
2019-01-12T14:48:42.332Z,10.57
2019-01-12T14:51:12.092Z,10.50
2019-01-12T14:53:41.822Z,11.50
2019-01-12T14:56:11.382Z,10.57
2019-01-12T14:58:40.976Z,8.67
2019-01-12T15:01:10.707Z,11.63
2019-01-12T15:03:40.271Z,11.27
2019-01-12T15:06:09.903Z,10.50
2019-01-12T15:08:39.468Z,10.27
2019-01-12T15:11:09.440Z,11.03
2019-01-12T15:13:39.423Z,11.00
2019-01-12T15:16:09.073Z,10.67
2019-01-12T15:18:38.651Z,10.67
2019-01-12T15:21:08.699Z,11.57
2019-01-12T15:23:41.853Z,11.23
2019-01-12T15:26:12.517Z,10.50
2019-01-12T15:28:42.139Z,10.67
2019-01-12T15:31:12.155Z,10.73
2019-01-12T15:33:43.889Z,10.57
2019-01-12T15:36:13.434Z,11.10
2019-01-12T15:38:43.061Z,8.30
2019-01-12T15:41:12.771Z,11.50
2019-01-12T15:43:42.425Z,12.27
2019-01-12T15:46:11.966Z,9.97
2019-01-12T15:48:41.860Z,11.27
2019-01-12T15:51:11.448Z,11.63
2019-01-12T15:53:41.363Z,11.37
2019-01-12T15:56:10.917Z,12.90
2019-01-12T15:58:40.883Z,10.53
2019-01-12T16:01:10.508Z,10.23
2019-01-12T16:03:40.150Z,11.00
2019-01-12T16:06:10.039Z,10.57
2019-01-12T16:08:39.723Z,12.20
2019-01-12T16:11:09.274Z,10.83
2019-01-12T16:13:38.825Z,13.80
2019-01-12T16:16:08.550Z,12.10
2019-01-12T16:18:38.120Z,12.07
2019-01-12T16:21:08.106Z,10.57
2019-01-12T16:23:37.688Z,10.13
2019-01-12T16:26:07.522Z,8.73
2019-01-12T16:28:37.539Z,7.87
2019-01-12T16:31:07.452Z,6.43
2019-01-12T16:33:36.983Z,7.50
2019-01-12T16:36:06.547Z,8.40
2019-01-12T16:38:36.266Z,6.87
2019-01-12T16:41:05.878Z,7.27
2019-01-12T16:43:36.818Z,8.13
2019-01-12T16:46:06.667Z,8.20
2019-01-12T16:48:36.208Z,7.67
2019-01-12T16:51:06.088Z,8.23
2019-01-12T16:53:36.603Z,7.57
2019-01-12T16:56:06.170Z,9.87
2019-01-12T16:58:35.723Z,9.57
2019-01-12T17:01:05.272Z,8.33
2019-01-12T17:03:34.847Z,8.03
2019-01-12T17:06:04.462Z,7.80
2019-01-12T17:08:34.407Z,6.93
2019-01-12T17:11:04.071Z,11.03
2019-01-12T17:13:33.616Z,6.27
2019-01-12T17:16:03.544Z,9.07
2019-01-12T17:18:33.081Z,7.07
2019-01-12T17:21:02.703Z,6.80
2019-01-12T17:23:32.381Z,7.47
2019-01-12T17:26:01.987Z,6.70
2019-01-12T17:28:37.228Z,8.07
2019-01-12T17:31:03.112Z,6.97
2019-01-12T17:33:33.028Z,8.60
2019-01-12T17:36:02.611Z,9.50
2019-01-12T17:38:32.178Z,9.60
2019-01-12T17:41:02.118Z,6.90
2019-01-12T17:43:31.693Z,7.53
2019-01-12T17:46:01.323Z,6.57
2019-01-12T17:48:30.868Z,7.20
2019-01-12T17:51:00.697Z,6.30
2019-01-12T17:53:30.284Z,6.20
2019-01-12T17:55:59.871Z,8.43
2019-01-12T17:58:29.438Z,5.73
2019-01-12T18:00:59.493Z,7.80
2019-01-12T18:03:30.319Z,4.97
2019-01-12T18:05:59.862Z,6.87
2019-01-12T18:08:29.432Z,5.43
2019-01-12T18:10:59.406Z,6.23
2019-01-12T18:13:28.964Z,7.83
2019-01-12T18:15:58.846Z,6.23
2019-01-12T18:18:28.419Z,7.67
2019-01-12T18:20:57.934Z,5.90
2019-01-12T18:23:27.553Z,8.33
2019-01-12T18:25:57.092Z,5.50
2019-01-12T18:28:29.758Z,4.83
2019-01-12T18:30:59.383Z,7.40
2019-01-12T18:33:28.962Z,5.27
2019-01-12T18:35:58.875Z,5.07
2019-01-12T18:38:28.954Z,5.17
2019-01-12T18:40:59.059Z,7.13
2019-01-12T18:43:29.247Z,5.23
2019-01-12T18:45:59.258Z,5.70
2019-01-12T18:48:29.513Z,4.43
2019-01-12T18:50:59.651Z,4.30
2019-01-12T18:53:29.923Z,5.27
2019-01-12T18:56:00.073Z,5.57
2019-01-12T18:58:30.197Z,4.87
2019-01-12T19:01:00.535Z,5.30
2019-01-12T19:03:31.138Z,4.70
2019-01-12T19:06:01.442Z,5.27
2019-01-12T19:08:31.550Z,5.60
2019-01-12T19:11:01.769Z,5.47
2019-01-12T19:13:31.811Z,5.83
2019-01-12T19:16:01.812Z,5.73
2019-01-12T19:21:44.672Z,6.03
2019-01-12T19:24:17.423Z,5.90
2019-01-12T19:26:47.420Z,5.93
2019-01-12T19:29:17.869Z,6.17
2019-01-12T19:31:47.965Z,6.90
2019-01-12T19:34:18.372Z,8.17
2019-01-12T19:36:48.354Z,6.93
2019-01-12T19:39:21.095Z,7.70
2019-01-12T19:41:51.430Z,6.03
2019-01-12T19:44:21.899Z,6.83
2019-01-12T19:46:51.906Z,4.53
2019-01-12T19:49:22.491Z,6.53
2019-01-12T19:51:52.579Z,5.80
2019-01-12T19:54:23.880Z,5.27
2019-01-12T19:56:54.050Z,6.00
2019-01-12T19:59:24.187Z,6.00
2019-01-12T20:01:55.496Z,4.70
2019-01-12T20:04:25.732Z,5.10
2019-01-12T20:06:55.986Z,5.80
2019-01-12T20:09:26.146Z,3.60
2019-01-12T20:11:56.642Z,4.90
2019-01-12T20:14:26.850Z,5.63
2019-01-12T20:16:57.050Z,4.57
2019-01-12T20:19:27.228Z,4.77
2019-01-12T20:21:57.274Z,4.60
2019-01-12T20:24:27.629Z,5.53
2019-01-12T20:26:57.757Z,4.60
2019-01-12T20:29:28.169Z,3.10
2019-01-12T20:32:14.453Z,4.80
2019-01-12T20:34:48.545Z,3.60
2019-01-12T20:38:05.463Z,4.33
2019-01-12T20:41:01.024Z,5.10
2019-01-12T20:48:08.862Z,8.27
2019-01-12T20:51:01.113Z,7.80
2019-01-12T20:54:03.509Z,5.27
2019-01-12T20:57:13.867Z,5.13
2019-01-12T21:00:20.099Z,3.43
2019-01-12T21:03:25.616Z,5.00
2019-01-12T21:06:06.316Z,6.50
2019-01-12T21:09:07.182Z,3.80
2019-01-12T21:12:49.295Z,12.10
2019-01-12T21:15:28.193Z,6.40
2019-01-12T21:18:21.602Z,5.67
2019-01-12T21:20:51.500Z,9.00
2019-01-12T21:23:21.702Z,10.10
2019-01-12T21:25:51.640Z,6.07
2019-01-12T21:28:22.683Z,5.63
2019-01-12T21:30:52.782Z,15.03
2019-01-12T21:33:22.884Z,7.43
2019-01-12T21:35:52.830Z,3.87
2019-01-12T21:38:23.088Z,3.70
2019-01-12T21:40:53.382Z,7.80
2019-01-12T21:43:23.635Z,5.10
2019-01-12T21:45:53.958Z,5.70
2019-01-12T21:48:24.493Z,19.53
2019-01-12T21:50:54.509Z,4.13
2019-01-12T21:53:25.430Z,5.50
2019-01-12T21:55:55.475Z,10.90
2019-01-12T21:58:26.177Z,9.30
2019-01-12T22:00:56.272Z,9.17
2019-01-12T22:03:26.563Z,12.77
2019-01-12T22:05:56.886Z,9.40
2019-01-12T22:08:27.576Z,5.80
2019-01-12T22:10:57.677Z,6.30
2019-01-12T22:13:28.099Z,5.70
2019-01-12T22:16:01.029Z,5.17
2019-01-12T22:18:31.522Z,4.93
2019-01-12T22:21:01.178Z,3.30
2019-01-12T22:23:30.722Z,13.63
2019-01-12T22:26:00.300Z,6.03
2019-01-12T22:28:29.904Z,8.50
2019-01-12T22:30:59.491Z,14.57
2019-01-12T22:33:29.025Z,10.50
2019-01-12T22:35:58.678Z,5.47
2019-01-12T22:38:28.457Z,4.63
2019-01-12T22:40:58.249Z,20.97
2019-01-12T22:43:28.063Z,9.63
2019-01-12T22:45:58.056Z,12.80
2019-01-12T22:48:29.173Z,6.67
2019-01-12T22:51:00.183Z,5.07
2019-01-12T22:53:29.810Z,4.20
2019-01-12T22:56:00.215Z,2.30
2019-01-12T22:58:29.949Z,3.50
2019-01-12T23:01:27.983Z,2.23
2019-01-12T23:03:57.820Z,2.73
2019-01-12T23:06:27.819Z,2.50
2019-01-12T23:08:57.650Z,2.63
2019-01-12T23:11:27.474Z,2.80
2019-01-12T23:13:57.302Z,2.60
2019-01-12T23:16:28.194Z,2.40
2019-01-12T23:18:57.733Z,2.30
2019-01-12T23:21:27.504Z,2.53
2019-01-12T23:23:57.175Z,2.60
2019-01-12T23:26:26.730Z,2.73
2019-01-12T23:28:56.551Z,2.50
2019-01-12T23:31:26.283Z,2.17
2019-01-12T23:33:56.340Z,1.90
2019-01-12T23:36:25.914Z,1.90
2019-01-12T23:38:55.931Z,2.00
2019-01-12T23:41:25.617Z,1.80
2019-01-12T23:43:55.221Z,1.80
2019-01-12T23:46:25.151Z,1.50
2019-01-12T23:48:56.008Z,2.10
2019-01-12T23:51:25.925Z,2.10
2019-01-12T23:53:55.522Z,2.03
2019-01-12T23:56:25.082Z,2.40
2019-01-12T23:58:54.643Z,1.90
